Darstellungsparameter: Aktuell verwendete Einstellungen:
Skalierung der Graphiken ... ?
xyx+y,   Skalierungsfaktor:      Skalierung: Modus: x, Faktor: 1
Darstellungszeitraum ... ?
Vom - - bis: - -   Zeitraum: 04.09.2018 - 05.09.2018
Min/Max/Avg-Anzeige ... ?
Zeige MMA aktuell
Zeige MMA Monat
Zeige MMA alles
Zeige --A aktuell
Zeige --A Monat
Zeige --A alles
Keine MMA-Anzeige
MMA:
Keine MMA-Graphiken
MMA-Basis: 04.09.2018 - 05.09.2018
Quicknavigation für Darstellung... ?
Tage:      1T, 2T, 3T, 5T -1T -2T -3T -5T +1T +2T +3T +5T
Wochen: 1W, 2W, 3W -1W -2W -3W +1W +2W +3W
Monate: 1M, 3M, 6M -1M -3M -6M +1M +3M +6M
Jahre:    1J, 3J, 5J, 10J -1J -3J -5J -10J +1J +3J +5J +10J
Nutze für die Darstellung ... ?
Originaldaten oder Mittelwerte auf ...
Stundenbasis Tagesbasis Wochenbasis
Monatsbasis Jahresbasis      Datenbasis: Original-Daten
Darstellen als:
Statistik (Auto) Statistik J:M      Darstellung:
Zur Graphik,    zurück zur Übersicht aller Sensoren.
 
Tabellarische Datenbersicht: ?
 
Sensor: Nr:Datum:Temp:Feuchte:Taupunkt:
Aussen-T/F 1 04-09-2018 00:00:00 17.4 C 89 % 15.57 C
2 04-09-2018 00:05:00 17.4 C 89 % 15.57 C
3 04-09-2018 00:10:00 17.4 C 89 % 15.57 C
4 04-09-2018 00:15:00 17.4 C 89 % 15.57 C
5 04-09-2018 00:20:00 17.4 C 89 % 15.57 C
6 04-09-2018 00:25:00 17.3 C 89 % 15.47 C
7 04-09-2018 00:30:00 17.3 C 89 % 15.47 C
8 04-09-2018 00:35:00 17.2 C 89 % 15.37 C
9 04-09-2018 00:40:00 17.2 C 89 % 15.37 C
10 04-09-2018 00:45:00 17.2 C 89 % 15.37 C
11 04-09-2018 00:50:00 17.2 C 90 % 15.55 C
12 04-09-2018 00:55:00 17.2 C 90 % 15.55 C
13 04-09-2018 01:00:00 17.2 C 90 % 15.55 C
14 04-09-2018 01:05:00 17.2 C 90 % 15.55 C
15 04-09-2018 01:10:00 17.2 C 90 % 15.55 C
16 04-09-2018 01:15:00 17.2 C 90 % 15.55 C
17 04-09-2018 01:20:00 17.2 C 90 % 15.55 C
18 04-09-2018 01:25:00 17.2 C 90 % 15.55 C
19 04-09-2018 01:30:00 17.2 C 90 % 15.55 C
20 04-09-2018 01:35:00 17.2 C 90 % 15.55 C
21 04-09-2018 01:40:00 17.3 C 90 % 15.64 C
22 04-09-2018 01:45:00 17.2 C 90 % 15.55 C
23 04-09-2018 01:50:00 17.3 C 90 % 15.64 C
24 04-09-2018 01:55:00 17.3 C 90 % 15.64 C
25 04-09-2018 02:00:00 17.3 C 90 % 15.64 C
Sensor: Nr:Datum:Temp:Feuchte:Taupunkt:
Aussen-T/F 26 04-09-2018 02:05:00 17.2 C 90 % 15.55 C
27 04-09-2018 02:10:00 17.3 C 90 % 15.64 C
28 04-09-2018 02:15:00 17.2 C 90 % 15.55 C
29 04-09-2018 02:20:00 17.2 C 90 % 15.55 C
30 04-09-2018 02:25:00 17.2 C 90 % 15.55 C
31 04-09-2018 02:30:00 17.3 C 90 % 15.64 C
32 04-09-2018 02:35:00 17.3 C 90 % 15.64 C
33 04-09-2018 02:40:00 17.2 C 90 % 15.55 C
34 04-09-2018 02:45:00 17.2 C 90 % 15.55 C
35 04-09-2018 02:50:00 17.2 C 90 % 15.55 C
36 04-09-2018 02:55:00 17.2 C 91 % 15.72 C
37 04-09-2018 03:00:00 17.2 C 91 % 15.72 C
38 04-09-2018 03:05:00 17.2 C 91 % 15.72 C
39 04-09-2018 03:10:00 17.2 C 91 % 15.72 C
40 04-09-2018 03:15:00 17.2 C 91 % 15.72 C
41 04-09-2018 03:20:00 17.2 C 91 % 15.72 C
42 04-09-2018 03:25:00 17.1 C 91 % 15.62 C
43 04-09-2018 03:30:00 17.2 C 91 % 15.72 C
44 04-09-2018 03:35:00 17.1 C 91 % 15.62 C
45 04-09-2018 03:40:00 17.1 C 91 % 15.62 C
46 04-09-2018 03:45:00 17.1 C 91 % 15.62 C
47 04-09-2018 03:50:00 17.1 C 91 % 15.62 C
48 04-09-2018 03:55:00 17.1 C 91 % 15.62 C
49 04-09-2018 04:00:00 17.1 C 91 % 15.62 C
50 04-09-2018 04:05:00 17.1 C 91 % 15.62 C
Sensor: Nr:Datum:Temp:Feuchte:Taupunkt:
Aussen-T/F 51 04-09-2018 04:10:00 17.1 C 91 % 15.62 C
52 04-09-2018 04:15:00 17.1 C 91 % 15.62 C
53 04-09-2018 04:20:00 17.1 C 91 % 15.62 C
54 04-09-2018 04:25:00 17.1 C 91 % 15.62 C
55 04-09-2018 04:30:00 17.1 C 91 % 15.62 C
56 04-09-2018 04:35:00 17.1 C 91 % 15.62 C
57 04-09-2018 04:40:00 17.1 C 91 % 15.62 C
58 04-09-2018 04:45:00 17 C 91 % 15.52 C
59 04-09-2018 04:50:00 16.9 C 91 % 15.42 C
60 04-09-2018 04:55:00 16.8 C 91 % 15.32 C
61 04-09-2018 05:00:00 16.7 C 90 % 15.05 C
62 04-09-2018 05:05:00 16.4 C 90 % 14.76 C
63 04-09-2018 05:10:00 16.3 C 91 % 14.83 C
64 04-09-2018 05:15:00 16.3 C 91 % 14.83 C
65 04-09-2018 05:20:00 16.2 C 91 % 14.73 C
66 04-09-2018 05:25:00 16.1 C 91 % 14.63 C
67 04-09-2018 05:30:00 16.1 C 92 % 14.8 C
68 04-09-2018 05:35:00 16.1 C 92 % 14.8 C
69 04-09-2018 05:40:00 16 C 92 % 14.7 C
70 04-09-2018 05:45:00 15.9 C 92 % 14.6 C
71 04-09-2018 05:50:00 15.8 C 92 % 14.5 C
72 04-09-2018 05:55:00 15.7 C 92 % 14.4 C
73 04-09-2018 06:00:00 15.6 C 92 % 14.31 C
74 04-09-2018 06:05:00 15.6 C 92 % 14.31 C
75 04-09-2018 06:10:00 15.5 C 92 % 14.21 C
Sensor: Nr:Datum:Temp:Feuchte:Taupunkt:
Aussen-T/F 76 04-09-2018 06:15:00 15.4 C 92 % 14.11 C
77 04-09-2018 06:20:00 15.4 C 92 % 14.11 C
78 04-09-2018 06:25:00 15.3 C 92 % 14.01 C
79 04-09-2018 06:30:00 15.2 C 92 % 13.91 C
80 04-09-2018 06:35:00 15.3 C 93 % 14.18 C
81 04-09-2018 06:40:00 15.3 C 93 % 14.18 C
82 04-09-2018 06:45:00 15.4 C 94 % 14.44 C
83 04-09-2018 06:50:00 15.4 C 94 % 14.44 C
84 04-09-2018 06:55:00 15.5 C 94 % 14.54 C
85 04-09-2018 07:00:00 15.7 C 94 % 14.74 C
86 04-09-2018 07:05:00 15.7 C 94 % 14.74 C
87 04-09-2018 07:10:00 15.8 C 94 % 14.84 C
88 04-09-2018 07:15:00 15.8 C 94 % 14.84 C
89 04-09-2018 07:20:00 15.8 C 94 % 14.84 C
90 04-09-2018 07:25:00 15.8 C 94 % 14.84 C
91 04-09-2018 07:30:00 15.8 C 94 % 14.84 C
92 04-09-2018 07:35:00 15.9 C 94 % 14.94 C
93 04-09-2018 07:40:00 15.9 C 94 % 14.94 C
94 04-09-2018 07:45:00 15.9 C 94 % 14.94 C
95 04-09-2018 07:50:00 16 C 94 % 15.03 C
96 04-09-2018 07:55:00 16.1 C 94 % 15.13 C
97 04-09-2018 08:00:00 16.1 C 94 % 15.13 C
98 04-09-2018 08:05:00 16.1 C 94 % 15.13 C
99 04-09-2018 08:10:00 16.1 C 94 % 15.13 C
100 04-09-2018 08:15:00 16.2 C 94 % 15.23 C
Sensor: Nr:Datum:Temp:Feuchte:Taupunkt:
Aussen-T/F 101 04-09-2018 08:20:00 16.2 C 94 % 15.23 C
102 04-09-2018 08:25:00 16.2 C 94 % 15.23 C
103 04-09-2018 08:30:00 16.3 C 94 % 15.33 C
104 04-09-2018 08:35:00 16.3 C 94 % 15.33 C
105 04-09-2018 08:40:00 16.3 C 94 % 15.33 C
106 04-09-2018 08:45:00 16.4 C 94 % 15.43 C
107 04-09-2018 08:50:00 16.5 C 94 % 15.53 C
108 04-09-2018 08:55:00 16.6 C 94 % 15.63 C
109 04-09-2018 09:00:00 16.7 C 94 % 15.73 C
110 04-09-2018 09:05:00 16.8 C 93 % 15.66 C
111 04-09-2018 09:10:00 16.9 C 93 % 15.76 C
112 04-09-2018 09:15:00 17.1 C 93 % 15.96 C
113 04-09-2018 09:20:00 17.2 C 93 % 16.06 C
114 04-09-2018 09:25:00 17.3 C 93 % 16.16 C
115 04-09-2018 09:30:00 17.4 C 92 % 16.09 C
116 04-09-2018 09:35:00 17.5 C 92 % 16.19 C
117 04-09-2018 09:40:00 17.6 C 91 % 16.11 C
118 04-09-2018 09:45:00 17.7 C 91 % 16.21 C
119 04-09-2018 09:50:00 17.7 C 91 % 16.21 C
120 04-09-2018 09:55:00 17.8 C 91 % 16.31 C
121 04-09-2018 10:00:00 17.9 C 91 % 16.41 C
122 04-09-2018 10:05:00 18 C 91 % 16.51 C
123 04-09-2018 10:10:00 18.1 C 90 % 16.43 C
124 04-09-2018 10:15:00 18.1 C 90 % 16.43 C
125 04-09-2018 10:20:00 18.2 C 90 % 16.53 C
Sensor: Nr:Datum:Temp:Feuchte:Taupunkt:
Aussen-T/F 126 04-09-2018 10:25:00 18.3 C 90 % 16.63 C
127 04-09-2018 10:30:00 18.3 C 90 % 16.63 C
128 04-09-2018 10:35:00 18.4 C 89 % 16.55 C
129 04-09-2018 10:40:00 18.5 C 89 % 16.65 C
130 04-09-2018 10:45:00 18.6 C 89 % 16.75 C
131 04-09-2018 10:50:00 18.6 C 89 % 16.75 C
132 04-09-2018 10:55:00 18.7 C 89 % 16.85 C
133 04-09-2018 11:00:00 18.7 C 89 % 16.85 C
134 04-09-2018 11:05:00 18.8 C 89 % 16.95 C
135 04-09-2018 11:10:00 18.9 C 90 % 17.22 C
136 04-09-2018 11:15:00 19.1 C 90 % 17.42 C
137 04-09-2018 11:20:00 19.1 C 89 % 17.24 C
138 04-09-2018 11:25:00 19.2 C 88 % 17.16 C
139 04-09-2018 11:30:00 19.4 C 88 % 17.36 C
140 04-09-2018 11:35:00 19.6 C 88 % 17.56 C
141 04-09-2018 11:40:00 19.7 C 88 % 17.66 C
142 04-09-2018 11:45:00 19.9 C 87 % 17.67 C
143 04-09-2018 11:50:00 20.1 C 87 % 17.87 C
144 04-09-2018 11:55:00 20.2 C 85 % 17.6 C
145 04-09-2018 12:00:00 20.3 C 85 % 17.7 C
146 04-09-2018 12:05:00 20.4 C 85 % 17.79 C
147 04-09-2018 12:10:00 20.6 C 83 % 17.61 C
148 04-09-2018 12:15:00 20.7 C 83 % 17.71 C
149 04-09-2018 12:20:00 20.8 C 80 % 17.22 C
150 04-09-2018 12:25:00 21.1 C 79 % 17.32 C
Sensor: Nr:Datum:Temp:Feuchte:Taupunkt:
Aussen-T/F 151 04-09-2018 12:30:00 21.2 C 77 % 17.01 C
152 04-09-2018 12:35:00 21.4 C 77 % 17.2 C
153 04-09-2018 12:40:00 21.6 C 75 % 16.98 C
154 04-09-2018 12:45:00 21.9 C 73 % 16.84 C
155 04-09-2018 12:50:00 22.3 C 71 % 16.79 C
156 04-09-2018 12:55:00 22.6 C 70 % 16.85 C
157 04-09-2018 13:00:00 22.7 C 69 % 16.72 C
158 04-09-2018 13:05:00 22.8 C 69 % 16.82 C
159 04-09-2018 13:10:00 22.9 C 68 % 16.68 C
160 04-09-2018 13:15:00 23.1 C 67 % 16.64 C
161 04-09-2018 13:20:00 23.2 C 66 % 16.5 C
162 04-09-2018 13:25:00 23.3 C 66 % 16.59 C
163 04-09-2018 13:30:00 23.4 C 65 % 16.45 C
164 04-09-2018 13:35:00 23.6 C 65 % 16.64 C
165 04-09-2018 13:40:00 23.6 C 64 % 16.39 C
166 04-09-2018 13:45:00 23.6 C 65 % 16.64 C
167 04-09-2018 13:50:00 23.7 C 65 % 16.73 C
168 04-09-2018 13:55:00 23.7 C 65 % 16.73 C
169 04-09-2018 14:00:00 23.8 C 64 % 16.58 C
170 04-09-2018 14:05:00 23.9 C 63 % 16.43 C
171 04-09-2018 14:10:00 24.1 C 63 % 16.62 C
172 04-09-2018 14:15:00 24.3 C 62 % 16.55 C
173 04-09-2018 14:20:00 24.3 C 62 % 16.55 C
174 04-09-2018 14:25:00 24.3 C 61 % 16.3 C
175 04-09-2018 14:30:00 24.2 C 61 % 16.2 C
Sensor: Nr:Datum:Temp:Feuchte:Taupunkt:
Aussen-T/F 176 04-09-2018 14:35:00 24.3 C 61 % 16.3 C
177 04-09-2018 14:40:00 24.6 C 62 % 16.84 C
178 04-09-2018 14:45:00 24.9 C 60 % 16.6 C
179 04-09-2018 14:50:00 25.1 C 59 % 16.52 C
180 04-09-2018 14:55:00 25.1 C 58 % 16.26 C
181 04-09-2018 15:00:00 25.2 C 58 % 16.35 C
182 04-09-2018 15:05:00 25.2 C 58 % 16.35 C
183 04-09-2018 15:10:00 25.2 C 58 % 16.35 C
184 04-09-2018 15:15:00 25.2 C 58 % 16.35 C
185 04-09-2018 15:20:00 25.4 C 56 % 15.99 C
186 04-09-2018 15:25:00 25.7 C 56 % 16.26 C
187 04-09-2018 15:30:00 25.8 C 55 % 16.07 C
188 04-09-2018 15:35:00 25.8 C 55 % 16.07 C
189 04-09-2018 15:40:00 25.6 C 55 % 15.89 C
190 04-09-2018 15:45:00 25.5 C 56 % 16.08 C
191 04-09-2018 15:50:00 25.4 C 56 % 15.99 C
192 04-09-2018 15:55:00 25.3 C 55 % 15.61 C
193 04-09-2018 16:00:00 25.3 C 56 % 15.89 C
194 04-09-2018 16:05:00 25.3 C 56 % 15.89 C
195 04-09-2018 16:10:00 25.4 C 55 % 15.7 C
196 04-09-2018 16:15:00 25.5 C 54 % 15.51 C
197 04-09-2018 16:20:00 25.6 C 56 % 16.17 C
198 04-09-2018 16:25:00 25.7 C 54 % 15.7 C
199 04-09-2018 16:30:00 26 C 53 % 15.68 C
200 04-09-2018 16:35:00 26.3 C 52 % 15.66 C
Sensor: Nr:Datum:Temp:Feuchte:Taupunkt:
Aussen-T/F 201 04-09-2018 16:40:00 26.2 C 52 % 15.57 C
202 04-09-2018 16:45:00 26.2 C 54 % 16.16 C
203 04-09-2018 16:50:00 26.1 C 53 % 15.77 C
204 04-09-2018 16:55:00 25.9 C 54 % 15.88 C
205 04-09-2018 17:00:00 25.8 C 59 % 17.18 C
206 04-09-2018 17:05:00 25.7 C 59 % 17.09 C
207 04-09-2018 17:10:00 25.6 C 60 % 17.26 C
208 04-09-2018 17:15:00 25.4 C 57 % 16.26 C
209 04-09-2018 17:20:00 25.3 C 61 % 17.24 C
210 04-09-2018 17:25:00 25.2 C 62 % 17.4 C
211 04-09-2018 17:30:00 25.1 C 62 % 17.31 C
212 04-09-2018 17:35:00 25 C 63 % 17.47 C
213 04-09-2018 17:40:00 24.8 C 63 % 17.28 C
214 04-09-2018 17:45:00 24.8 C 64 % 17.53 C
215 04-09-2018 17:50:00 24.7 C 64 % 17.43 C
216 04-09-2018 17:55:00 24.6 C 65 % 17.58 C
217 04-09-2018 18:00:00 24.6 C 65 % 17.58 C
218 04-09-2018 18:05:00 24.6 C 65 % 17.58 C
219 04-09-2018 18:10:00 24.6 C 65 % 17.58 C
220 04-09-2018 18:15:00 24.6 C 66 % 17.83 C
221 04-09-2018 18:20:00 24.6 C 65 % 17.58 C
222 04-09-2018 18:25:00 24.5 C 65 % 17.49 C
223 04-09-2018 18:30:00 24.4 C 65 % 17.39 C
224 04-09-2018 18:35:00 24.3 C 65 % 17.3 C
225 04-09-2018 18:40:00 24.1 C 66 % 17.35 C
Sensor: Nr:Datum:Temp:Feuchte:Taupunkt:
Aussen-T/F 226 04-09-2018 18:45:00 23.9 C 65 % 16.92 C
227 04-09-2018 18:50:00 23.8 C 67 % 17.3 C
228 04-09-2018 18:55:00 23.6 C 67 % 17.11 C
229 04-09-2018 19:00:00 23.6 C 67 % 17.11 C
230 04-09-2018 19:05:00 23.4 C 67 % 16.92 C
231 04-09-2018 19:10:00 23.4 C 67 % 16.92 C
232 04-09-2018 19:15:00 23.4 C 67 % 16.92 C
233 04-09-2018 19:20:00 23.4 C 67 % 16.92 C
234 04-09-2018 19:25:00 23.5 C 67 % 17.02 C
235 04-09-2018 19:30:00 23.4 C 66 % 16.69 C
236 04-09-2018 19:35:00 23.3 C 66 % 16.59 C
237 04-09-2018 19:40:00 23.2 C 66 % 16.5 C
238 04-09-2018 19:45:00 23.1 C 67 % 16.64 C
239 04-09-2018 19:50:00 22.9 C 67 % 16.45 C
240 04-09-2018 19:55:00 22.7 C 68 % 16.49 C
241 04-09-2018 20:00:00 22.8 C 67 % 16.35 C
242 04-09-2018 20:05:00 22.8 C 68 % 16.59 C
243 04-09-2018 20:10:00 22.7 C 68 % 16.49 C
244 04-09-2018 20:15:00 22.5 C 69 % 16.53 C
245 04-09-2018 20:20:00 22.3 C 70 % 16.56 C
246 04-09-2018 20:25:00 22.1 C 71 % 16.6 C
247 04-09-2018 20:30:00 21.9 C 71 % 16.4 C
248 04-09-2018 20:35:00 21.8 C 72 % 16.53 C
249 04-09-2018 20:40:00 21.7 C 72 % 16.43 C
250 04-09-2018 20:45:00 21.6 C 73 % 16.55 C
Sensor: Nr:Datum:Temp:Feuchte:Taupunkt:
Aussen-T/F 251 04-09-2018 20:50:00 21.4 C 73 % 16.36 C
252 04-09-2018 20:55:00 21.3 C 74 % 16.48 C
253 04-09-2018 21:00:00 21.2 C 74 % 16.38 C
254 04-09-2018 21:05:00 21.2 C 75 % 16.59 C
255 04-09-2018 21:10:00 21.1 C 75 % 16.5 C
256 04-09-2018 21:15:00 21 C 75 % 16.4 C
257 04-09-2018 21:20:00 20.9 C 75 % 16.3 C
258 04-09-2018 21:25:00 20.9 C 75 % 16.3 C
259 04-09-2018 21:30:00 20.8 C 75 % 16.21 C
260 04-09-2018 21:35:00 20.7 C 76 % 16.32 C
261 04-09-2018 21:40:00 20.7 C 76 % 16.32 C
262 04-09-2018 21:45:00 20.6 C 76 % 16.22 C
263 04-09-2018 21:50:00 20.5 C 76 % 16.12 C
264 04-09-2018 21:55:00 20.4 C 76 % 16.03 C
265 04-09-2018 22:00:00 20.4 C 76 % 16.03 C
266 04-09-2018 22:05:00 20.4 C 75 % 15.82 C
267 04-09-2018 22:10:00 20.3 C 76 % 15.93 C
268 04-09-2018 22:15:00 20.3 C 76 % 15.93 C
269 04-09-2018 22:20:00 20.2 C 76 % 15.83 C
270 04-09-2018 22:25:00 20.2 C 76 % 15.83 C
271 04-09-2018 22:30:00 20.1 C 76 % 15.74 C
272 04-09-2018 22:35:00 20.1 C 77 % 15.94 C
273 04-09-2018 22:40:00 20.1 C 77 % 15.94 C
274 04-09-2018 22:45:00 20 C 77 % 15.85 C
275 04-09-2018 22:50:00 20 C 77 % 15.85 C
Sensor: Nr:Datum:Temp:Feuchte:Taupunkt:
Aussen-T/F 276 04-09-2018 22:55:00 20 C 77 % 15.85 C
277 04-09-2018 23:00:00 19.9 C 78 % 15.95 C
278 04-09-2018 23:05:00 19.9 C 78 % 15.95 C
279 04-09-2018 23:10:00 19.9 C 78 % 15.95 C
280 04-09-2018 23:15:00 19.8 C 78 % 15.85 C
281 04-09-2018 23:20:00 19.8 C 79 % 16.05 C
282 04-09-2018 23:25:00 19.8 C 79 % 16.05 C
283 04-09-2018 23:30:00 19.7 C 79 % 15.96 C
284 04-09-2018 23:35:00 19.7 C 79 % 15.96 C
285 04-09-2018 23:40:00 19.7 C 79 % 15.96 C
286 04-09-2018 23:45:00 19.7 C 79 % 15.96 C
287 04-09-2018 23:50:00 19.7 C 79 % 15.96 C
288 04-09-2018 23:55:00 19.7 C 79 % 15.96 C
289 05-09-2018 00:00:00 19.6 C 79 % 15.86 C
290 05-09-2018 00:05:00 19.6 C 79 % 15.86 C
291 05-09-2018 00:10:00 19.6 C 80 % 16.06 C
292 05-09-2018 00:15:00 19.6 C 80 % 16.06 C
293 05-09-2018 00:20:00 19.5 C 80 % 15.96 C
294 05-09-2018 00:25:00 19.5 C 80 % 15.96 C
295 05-09-2018 00:30:00 19.4 C 80 % 15.86 C
296 05-09-2018 00:35:00 19.4 C 80 % 15.86 C
297 05-09-2018 00:40:00 19.4 C 80 % 15.86 C
298 05-09-2018 00:45:00 19.4 C 80 % 15.86 C
299 05-09-2018 00:50:00 19.3 C 80 % 15.76 C
300 05-09-2018 00:55:00 19.3 C 80 % 15.76 C
Sensor: Nr:Datum:Temp:Feuchte:Taupunkt:
Aussen-T/F 301 05-09-2018 01:00:00 19.2 C 80 % 15.67 C
302 05-09-2018 01:05:00 19.2 C 81 % 15.86 C
303 05-09-2018 01:10:00 19.2 C 81 % 15.86 C
304 05-09-2018 01:15:00 19.2 C 81 % 15.86 C
305 05-09-2018 01:20:00 19.2 C 81 % 15.86 C
306 05-09-2018 01:25:00 19.1 C 81 % 15.76 C
307 05-09-2018 01:30:00 19.1 C 81 % 15.76 C
308 05-09-2018 01:35:00 19.1 C 81 % 15.76 C
309 05-09-2018 01:40:00 19.1 C 81 % 15.76 C
310 05-09-2018 01:45:00 19.1 C 81 % 15.76 C
311 05-09-2018 01:50:00 19 C 81 % 15.67 C
312 05-09-2018 01:55:00 18.9 C 81 % 15.57 C
313 05-09-2018 02:00:00 18.9 C 81 % 15.57 C
314 05-09-2018 02:05:00 18.8 C 82 % 15.66 C
315 05-09-2018 02:10:00 18.7 C 82 % 15.57 C
316 05-09-2018 02:15:00 18.5 C 82 % 15.37 C
317 05-09-2018 02:20:00 18.4 C 83 % 15.46 C
318 05-09-2018 02:25:00 18.3 C 83 % 15.36 C
319 05-09-2018 02:30:00 18.3 C 83 % 15.36 C
320 05-09-2018 02:35:00 18.2 C 83 % 15.27 C
321 05-09-2018 02:40:00 18.1 C 83 % 15.17 C
322 05-09-2018 02:45:00 17.9 C 84 % 15.16 C
323 05-09-2018 02:50:00 17.8 C 84 % 15.06 C
324 05-09-2018 02:55:00 17.6 C 84 % 14.87 C
325 05-09-2018 03:00:00 17.4 C 85 % 14.85 C
Sensor: Nr:Datum:Temp:Feuchte:Taupunkt:
Aussen-T/F 326 05-09-2018 03:05:00 17.3 C 85 % 14.76 C
327 05-09-2018 03:10:00 17.1 C 86 % 14.74 C
328 05-09-2018 03:15:00 17.1 C 87 % 14.92 C
329 05-09-2018 03:20:00 16.9 C 86 % 14.54 C
330 05-09-2018 03:25:00 16.8 C 87 % 14.62 C
331 05-09-2018 03:30:00 16.7 C 87 % 14.53 C
332 05-09-2018 03:35:00 16.7 C 87 % 14.53 C
333 05-09-2018 03:40:00 16.6 C 88 % 14.6 C
334 05-09-2018 03:45:00 16.5 C 88 % 14.51 C
335 05-09-2018 03:50:00 16.4 C 88 % 14.41 C
336 05-09-2018 03:55:00 16.3 C 88 % 14.31 C
337 05-09-2018 04:00:00 16.3 C 88 % 14.31 C
338 05-09-2018 04:05:00 16.2 C 89 % 14.39 C
339 05-09-2018 04:10:00 16.1 C 89 % 14.29 C
340 05-09-2018 04:15:00 16 C 89 % 14.19 C
341 05-09-2018 04:20:00 15.9 C 89 % 14.09 C
342 05-09-2018 04:25:00 15.8 C 90 % 14.16 C
343 05-09-2018 04:30:00 15.9 C 91 % 14.43 C
344 05-09-2018 04:35:00 15.8 C 90 % 14.16 C
345 05-09-2018 04:40:00 15.8 C 90 % 14.16 C
346 05-09-2018 04:45:00 15.8 C 91 % 14.33 C
347 05-09-2018 04:50:00 15.8 C 91 % 14.33 C
348 05-09-2018 04:55:00 15.8 C 91 % 14.33 C
349 05-09-2018 05:00:00 15.9 C 92 % 14.6 C
350 05-09-2018 05:05:00 16 C 92 % 14.7 C
Sensor: Nr:Datum:Temp:Feuchte:Taupunkt:
Aussen-T/F 351 05-09-2018 05:10:00 16.1 C 92 % 14.8 C
352 05-09-2018 05:15:00 16.1 C 92 % 14.8 C
353 05-09-2018 05:20:00 16.1 C 92 % 14.8 C
354 05-09-2018 05:25:00 16.2 C 92 % 14.9 C
355 05-09-2018 05:30:00 16.2 C 92 % 14.9 C
356 05-09-2018 05:35:00 16.2 C 92 % 14.9 C
357 05-09-2018 05:40:00 16.2 C 92 % 14.9 C
358 05-09-2018 05:45:00 16.2 C 92 % 14.9 C
359 05-09-2018 05:50:00 16.2 C 91 % 14.73 C
360 05-09-2018 05:55:00 16.1 C 91 % 14.63 C
361 05-09-2018 06:00:00 16.1 C 91 % 14.63 C
362 05-09-2018 06:05:00 16.1 C 91 % 14.63 C
363 05-09-2018 06:10:00 16 C 91 % 14.53 C
364 05-09-2018 06:15:00 15.9 C 91 % 14.43 C
365 05-09-2018 06:20:00 15.9 C 91 % 14.43 C
366 05-09-2018 06:25:00 15.8 C 91 % 14.33 C
367 05-09-2018 06:30:00 15.8 C 91 % 14.33 C
368 05-09-2018 06:35:00 15.7 C 91 % 14.24 C
369 05-09-2018 06:40:00 15.6 C 91 % 14.14 C
370 05-09-2018 06:45:00 15.5 C 92 % 14.21 C
371 05-09-2018 06:50:00 15.6 C 92 % 14.31 C
372 05-09-2018 06:55:00 15.5 C 92 % 14.21 C
373 05-09-2018 07:00:00 15.4 C 92 % 14.11 C
374 05-09-2018 07:05:00 15.4 C 92 % 14.11 C
375 05-09-2018 07:10:00 15.4 C 92 % 14.11 C
Sensor: Nr:Datum:Temp:Feuchte:Taupunkt:
Aussen-T/F 376 05-09-2018 07:15:00 15.3 C 92 % 14.01 C
377 05-09-2018 07:20:00 15.3 C 92 % 14.01 C
378 05-09-2018 07:25:00 15.3 C 93 % 14.18 C
379 05-09-2018 07:30:00 15.3 C 93 % 14.18 C
380 05-09-2018 07:35:00 15.3 C 93 % 14.18 C
381 05-09-2018 07:40:00 15.3 C 93 % 14.18 C
382 05-09-2018 07:45:00 15.3 C 93 % 14.18 C
383 05-09-2018 07:50:00 15.3 C 93 % 14.18 C
384 05-09-2018 07:55:00 15.4 C 93 % 14.27 C
385 05-09-2018 08:00:00 15.5 C 94 % 14.54 C
386 05-09-2018 08:05:00 15.6 C 94 % 14.64 C
387 05-09-2018 08:10:00 15.6 C 94 % 14.64 C
388 05-09-2018 08:15:00 15.7 C 93 % 14.57 C
389 05-09-2018 08:20:00 15.7 C 93 % 14.57 C
390 05-09-2018 08:25:00 15.8 C 93 % 14.67 C
391 05-09-2018 08:30:00 15.8 C 93 % 14.67 C
392 05-09-2018 08:35:00 15.9 C 94 % 14.94 C
393 05-09-2018 08:40:00 16 C 93 % 14.87 C
394 05-09-2018 08:45:00 16 C 93 % 14.87 C
395 05-09-2018 08:50:00 16.1 C 93 % 14.97 C
396 05-09-2018 08:55:00 16.1 C 93 % 14.97 C
397 05-09-2018 09:00:00 16.2 C 93 % 15.07 C
398 05-09-2018 09:05:00 16.2 C 93 % 15.07 C
399 05-09-2018 09:10:00 16.3 C 93 % 15.17 C
400 05-09-2018 09:15:00 16.4 C 93 % 15.27 C
Sensor: Nr:Datum:Temp:Feuchte:Taupunkt:
Aussen-T/F 401 05-09-2018 09:20:00 16.5 C 93 % 15.36 C
402 05-09-2018 09:25:00 16.6 C 93 % 15.46 C
403 05-09-2018 09:30:00 16.7 C 93 % 15.56 C
404 05-09-2018 09:35:00 16.8 C 93 % 15.66 C
405 05-09-2018 09:40:00 16.9 C 93 % 15.76 C
406 05-09-2018 09:45:00 17 C 93 % 15.86 C
407 05-09-2018 09:50:00 17.1 C 93 % 15.96 C
408 05-09-2018 09:55:00 17.2 C 92 % 15.89 C
409 05-09-2018 10:00:00 17.3 C 92 % 15.99 C
410 05-09-2018 10:05:00 17.4 C 92 % 16.09 C
411 05-09-2018 10:10:00 17.6 C 91 % 16.11 C
412 05-09-2018 10:15:00 17.8 C 91 % 16.31 C
413 05-09-2018 10:20:00 18 C 91 % 16.51 C
414 05-09-2018 10:25:00 18.2 C 90 % 16.53 C
415 05-09-2018 10:30:00 18.3 C 90 % 16.63 C
416 05-09-2018 10:35:00 18.5 C 89 % 16.65 C
417 05-09-2018 10:40:00 18.7 C 89 % 16.85 C
418 05-09-2018 10:45:00 18.8 C 88 % 16.77 C
419 05-09-2018 10:50:00 19 C 87 % 16.79 C
420 05-09-2018 10:55:00 19.2 C 87 % 16.98 C
421 05-09-2018 11:00:00 19.4 C 86 % 17 C
422 05-09-2018 11:05:00 19.6 C 86 % 17.19 C
423 05-09-2018 11:10:00 19.8 C 84 % 17.02 C
424 05-09-2018 11:15:00 20 C 83 % 17.02 C
425 05-09-2018 11:20:00 20.2 C 82 % 17.03 C
Sensor: Nr:Datum:Temp:Feuchte:Taupunkt:
Aussen-T/F 426 05-09-2018 11:25:00 20.6 C 81 % 17.22 C
427 05-09-2018 11:30:00 20.8 C 79 % 17.02 C
428 05-09-2018 11:35:00 21.1 C 77 % 16.91 C
429 05-09-2018 11:40:00 21.4 C 76 % 16.99 C
430 05-09-2018 11:45:00 21.7 C 75 % 17.07 C
431 05-09-2018 11:50:00 22 C 74 % 17.15 C
432 05-09-2018 11:55:00 22.3 C 73 % 17.23 C
433 05-09-2018 12:00:00 22.5 C 72 % 17.2 C
434 05-09-2018 12:05:00 22.7 C 71 % 17.17 C
435 05-09-2018 12:10:00 22.9 C 70 % 17.14 C
436 05-09-2018 12:15:00 23.1 C 69 % 17.1 C
437 05-09-2018 12:20:00 23.2 C 68 % 16.97 C
438 05-09-2018 12:25:00 23.4 C 66 % 16.69 C
439 05-09-2018 12:30:00 23.6 C 66 % 16.88 C
440 05-09-2018 12:35:00 23.7 C 66 % 16.97 C
441 05-09-2018 12:40:00 23.8 C 64 % 16.58 C
442 05-09-2018 12:45:00 24.1 C 63 % 16.62 C
443 05-09-2018 12:50:00 24.3 C 63 % 16.81 C
444 05-09-2018 12:55:00 24.4 C 62 % 16.65 C
445 05-09-2018 13:00:00 24.6 C 61 % 16.58 C
446 05-09-2018 13:05:00 24.7 C 61 % 16.67 C
447 05-09-2018 13:10:00 24.8 C 60 % 16.51 C
448 05-09-2018 13:15:00 25.1 C 58 % 16.26 C
449 05-09-2018 13:20:00 25.2 C 57 % 16.08 C
450 05-09-2018 13:25:00 25.4 C 56 % 15.99 C
Sensor: Nr:Datum:Temp:Feuchte:Taupunkt:
Aussen-T/F 451 05-09-2018 13:30:00 25.4 C 56 % 15.99 C
452 05-09-2018 13:35:00 25.6 C 56 % 16.17 C
453 05-09-2018 13:40:00 25.7 C 56 % 16.26 C
454 05-09-2018 13:45:00 25.9 C 55 % 16.17 C
455 05-09-2018 13:50:00 26.1 C 54 % 16.07 C
456 05-09-2018 13:55:00 26.2 C 53 % 15.87 C
457 05-09-2018 14:00:00 26.3 C 53 % 15.96 C
458 05-09-2018 14:05:00 26.3 C 51 % 15.36 C
459 05-09-2018 14:10:00 26.4 C 51 % 15.45 C
460 05-09-2018 14:15:00 26.4 C 51 % 15.45 C
461 05-09-2018 14:20:00 26.6 C 51 % 15.63 C
462 05-09-2018 14:25:00 26.7 C 50 % 15.42 C
463 05-09-2018 14:30:00 26.8 C 49 % 15.19 C
464 05-09-2018 14:35:00 26.8 C 50 % 15.51 C
465 05-09-2018 14:40:00 27 C 48 % 15.05 C
466 05-09-2018 14:45:00 27.2 C 47 % 14.91 C
467 05-09-2018 14:50:00 27.3 C 47 % 15 C
468 05-09-2018 14:55:00 27.3 C 47 % 15 C
469 05-09-2018 15:00:00 27.3 C 48 % 15.33 C
470 05-09-2018 15:05:00 27.4 C 48 % 15.42 C
471 05-09-2018 15:10:00 27.4 C 47 % 15.09 C
472 05-09-2018 15:15:00 27.4 C 47 % 15.09 C
473 05-09-2018 15:20:00 27.5 C 48 % 15.51 C
474 05-09-2018 15:25:00 27.6 C 47 % 15.27 C
475 05-09-2018 15:30:00 27.6 C 46 % 14.94 C
Sensor: Nr:Datum:Temp:Feuchte:Taupunkt:
Aussen-T/F 476 05-09-2018 15:35:00 27.5 C 47 % 15.18 C
477 05-09-2018 15:40:00 27.5 C 49 % 15.83 C
478 05-09-2018 15:45:00 27.4 C 48 % 15.42 C
479 05-09-2018 15:50:00 27.4 C 48 % 15.42 C
480 05-09-2018 15:55:00 27.4 C 50 % 16.06 C
481 05-09-2018 16:00:00 27.3 C 48 % 15.33 C
482 05-09-2018 16:05:00 27.3 C 52 % 16.58 C
483 05-09-2018 16:10:00 27.4 C 50 % 16.06 C
484 05-09-2018 16:15:00 27.5 C 46 % 14.85 C
485 05-09-2018 16:20:00 27.8 C 46 % 15.12 C
486 05-09-2018 16:25:00 28 C 44 % 14.61 C
487 05-09-2018 16:30:00 28.2 C 44 % 14.79 C
488 05-09-2018 16:35:00 28.4 C 43 % 14.62 C
489 05-09-2018 16:40:00 28.6 C 43 % 14.8 C
490 05-09-2018 16:45:00 28.8 C 45 % 15.68 C
491 05-09-2018 16:50:00 29.1 C 43 % 15.24 C
492 05-09-2018 16:55:00 29.2 C 43 % 15.33 C
493 05-09-2018 17:00:00 29.2 C 42 % 14.97 C
494 05-09-2018 17:05:00 29.3 C 41 % 14.68 C
495 05-09-2018 17:10:00 29.2 C 41 % 14.59 C
496 05-09-2018 17:15:00 28.9 C 41 % 14.33 C
497 05-09-2018 17:20:00 28.7 C 43 % 14.88 C
498 05-09-2018 17:25:00 28.5 C 43 % 14.71 C
499 05-09-2018 17:30:00 28.4 C 44 % 14.97 C
500 05-09-2018 17:35:00 28.3 C 50 % 16.88 C
Sensor: Nr:Datum:Temp:Feuchte:Taupunkt:
Aussen-T/F 501 05-09-2018 17:40:00 28.1 C 50 % 16.7 C
502 05-09-2018 17:45:00 27.9 C 50 % 16.51 C
503 05-09-2018 17:50:00 27.6 C 50 % 16.24 C
504 05-09-2018 17:55:00 27.3 C 52 % 16.58 C
505 05-09-2018 18:00:00 27.1 C 52 % 16.4 C
506 05-09-2018 18:05:00 26.8 C 52 % 16.12 C
507 05-09-2018 18:10:00 26.6 C 53 % 16.23 C
508 05-09-2018 18:15:00 26.4 C 53 % 16.05 C
509 05-09-2018 18:20:00 26.3 C 54 % 16.25 C
510 05-09-2018 18:25:00 26.3 C 55 % 16.54 C
511 05-09-2018 18:30:00 26.2 C 55 % 16.45 C
512 05-09-2018 18:35:00 26.2 C 56 % 16.73 C
513 05-09-2018 18:40:00 26.2 C 55 % 16.45 C
514 05-09-2018 18:45:00 26.1 C 56 % 16.64 C
515 05-09-2018 18:50:00 26 C 56 % 16.54 C
516 05-09-2018 18:55:00 25.8 C 56 % 16.36 C
517 05-09-2018 19:00:00 25.7 C 56 % 16.26 C
518 05-09-2018 19:05:00 25.4 C 57 % 16.26 C
519 05-09-2018 19:10:00 25.2 C 58 % 16.35 C
520 05-09-2018 19:15:00 25 C 57 % 15.89 C
521 05-09-2018 19:20:00 24.8 C 57 % 15.7 C
522 05-09-2018 19:25:00 24.6 C 57 % 15.52 C
523 05-09-2018 19:30:00 24.3 C 58 % 15.51 C
524 05-09-2018 19:35:00 24.1 C 58 % 15.32 C
525 05-09-2018 19:40:00 23.9 C 60 % 15.66 C
Sensor: Nr:Datum:Temp:Feuchte:Taupunkt:
Aussen-T/F 526 05-09-2018 19:45:00 23.6 C 60 % 15.38 C
527 05-09-2018 19:50:00 23.4 C 62 % 15.71 C
528 05-09-2018 19:55:00 23.2 C 63 % 15.77 C
529 05-09-2018 20:00:00 22.9 C 63 % 15.48 C
530 05-09-2018 20:05:00 22.8 C 64 % 15.64 C
531 05-09-2018 20:10:00 22.7 C 64 % 15.54 C
532 05-09-2018 20:15:00 22.7 C 66 % 16.02 C
533 05-09-2018 20:20:00 22.6 C 66 % 15.93 C
534 05-09-2018 20:25:00 22.6 C 66 % 15.93 C
535 05-09-2018 20:30:00 22.6 C 65 % 15.69 C
536 05-09-2018 20:35:00 22.7 C 65 % 15.78 C
537 05-09-2018 20:40:00 22.7 C 64 % 15.54 C
538 05-09-2018 20:45:00 22.9 C 64 % 15.73 C
539 05-09-2018 20:50:00 23 C 64 % 15.82 C
540 05-09-2018 20:55:00 23.1 C 65 % 16.16 C
541 05-09-2018 21:00:00 22.9 C 64 % 15.73 C
542 05-09-2018 21:05:00 22.8 C 65 % 15.88 C
543 05-09-2018 21:10:00 22.7 C 65 % 15.78 C
544 05-09-2018 21:15:00 22.5 C 66 % 15.83 C
545 05-09-2018 21:20:00 22.3 C 66 % 15.64 C
546 05-09-2018 21:25:00 22.1 C 66 % 15.45 C
547 05-09-2018 21:30:00 21.9 C 67 % 15.5 C
548 05-09-2018 21:35:00 21.7 C 68 % 15.54 C
549 05-09-2018 21:40:00 21.5 C 68 % 15.35 C
550 05-09-2018 21:45:00 21.3 C 69 % 15.38 C
Sensor: Nr:Datum:Temp:Feuchte:Taupunkt:
Aussen-T/F 551 05-09-2018 21:50:00 21.1 C 69 % 15.19 C
552 05-09-2018 21:55:00 21 C 70 % 15.32 C
553 05-09-2018 22:00:00 20.8 C 71 % 15.35 C
554 05-09-2018 22:05:00 20.7 C 71 % 15.25 C
555 05-09-2018 22:10:00 20.6 C 71 % 15.16 C
556 05-09-2018 22:15:00 20.5 C 71 % 15.06 C
557 05-09-2018 22:20:00 20.4 C 72 % 15.18 C
558 05-09-2018 22:25:00 20.3 C 72 % 15.09 C
559 05-09-2018 22:30:00 20.2 C 72 % 14.99 C
560 05-09-2018 22:35:00 20.1 C 73 % 15.11 C
561 05-09-2018 22:40:00 19.9 C 73 % 14.92 C
562 05-09-2018 22:45:00 19.7 C 74 % 14.94 C
563 05-09-2018 22:50:00 19.5 C 75 % 14.95 C
564 05-09-2018 22:55:00 19.3 C 75 % 14.76 C
565 05-09-2018 23:00:00 19.1 C 76 % 14.77 C
566 05-09-2018 23:05:00 18.8 C 77 % 14.68 C
567 05-09-2018 23:10:00 18.7 C 78 % 14.79 C
568 05-09-2018 23:15:00 18.6 C 78 % 14.69 C
569 05-09-2018 23:20:00 18.4 C 79 % 14.69 C
570 05-09-2018 23:25:00 18.3 C 79 % 14.6 C
571 05-09-2018 23:30:00 18.2 C 79 % 14.5 C
572 05-09-2018 23:35:00 18.2 C 80 % 14.69 C
573 05-09-2018 23:40:00 18.1 C 80 % 14.6 C
574 05-09-2018 23:45:00 17.9 C 80 % 14.4 C
575 05-09-2018 23:50:00 17.9 C 81 % 14.59 C
Sensor: Nr:Datum:Temp:Feuchte:Taupunkt:
Aussen-T/F 576 05-09-2018 23:55:00 17.8 C 81 % 14.5 C

Legende:
   Min
   Max


Maximal/Minimal-Werte vom 04.09.2018 - 05.09.2018

Sensor Min Max Avg
Temp
(Aussen-T/F)
15.2 °C
04-09-2018  06:30:00
29.3 °C
05-09-2018  17:05:00
20.47 °C
Feuchte
(Aussen-T/F)
41 %
05-09-2018  17:05:00
94 %
04-09-2018  06:45:00
76.34 %
Taupunkt
(Aussen-T/F)
13.91 C
04-09-2018  06:30:00
17.87 C
04-09-2018  11:50:00
15.73 C

Die Daten stammen von einer Davis Vantage Pro 2 Wetter-Station und werden unter Linux mit der Software wview2wettercgi und aufbereitet. Alle Angaben erfolgen ohne Gewähr für ihre Vollständigkeit oder Richtigkeit.
Kontakt: Rainer Krienke krienke@uni-koblenz.de . Meine Webseiten an der Uni Koblenz oder privat.
Version: $Revision: 0.78 $